Log in Register

Login to your account

Username *
Password *
Remember Me

Create an account

Fields marked with an asterisk (*) are required.
Name *
Username *
Password *
Verify password *
Email *
Verify email *

METAR/TAF de Chambéry

[source: ADDS]
METAR
LFLB 261330Z AUTO 14010KT 080V170 9999 FEW012/// SCT038/// BKN044/// ///TCU 06/M02 Q1011 TEMPO 36010G25KT 2500 SHGS BKN014 SCT020CB =
TAF LFLB 261100Z 2612/2712 VRB10KT 9999 BKN035 TEMPO 2612/2624 VRB15G25KT 4000 SHRA SCT020TCU TEMPO 2613/2618 36010KT PROB40 TEMPO 2612/2620 2500 SHGS BKN014 SCT020CB PROB30 TEMPO 2612/2620 SHRASN PROB30 TEMPO 2620/2624 2000 SHSN BKN009 FM270200 18005KT CAVOK BECMG 2709/2711 4000 RA OVC025 PROB40 TEMPO 2710/2712 16015G25KT 2500 SNRA BKN014
TAF
TAF LFLB 261100Z 2612/2712 VRB10KT 9999 BKN035 TEMPO 2612/2624 VRB15G25KT 4000 SHRA SCT020TCU TEMPO 2613/2618 36010KT PROB40 TEMPO 2612/2620 2500 SHGS BKN014 SCT020CB PROB30 TEMPO 2612/2620 SHRASN PROB30 TEMPO 2620/2624 2000 SHSN BKN009 FM270200 18005KT CAVOK BECMG 2709/2711 4000 RA OVC025 PROB40 TEMPO 2710/2712 16015G25KT 2500 SNRA BKN014 =
SR / SS: 06:20 / 17:17 UTC (Lever/Coucher du soleil le 2020-02-26)

 

Webcam de l'Aéroclub - Parking Lima et SW (réactualisation : 5min)

Cliquer ici pour une animation sur les 3 dernières heures / Cliquer sur l'image pour l'agrandir dans une nouvelle fenêtre

 

Webcam de l'Aéroclub - Manche à air et WA (réactualisation : 5min)

Cliquer ici pour une animation sur les 3 dernières heures / Cliquer sur l'image pour l'agrandir dans une nouvelle fenêtre

 

JSN Boot template designed by JoomlaShine.com